createdAt,value
2017-12-13T00:02:11.798Z,4.47
2017-12-13T00:04:39.210Z,4.70
2017-12-13T00:07:06.656Z,5.25
2017-12-13T00:09:34.147Z,5.25
2017-12-13T00:12:01.693Z,4.78
2017-12-13T00:14:29.116Z,5.00
2017-12-13T00:16:56.548Z,4.43
2017-12-13T00:19:23.969Z,4.60
2017-12-13T00:21:51.421Z,4.78
2017-12-13T00:24:18.970Z,4.65
2017-12-13T00:26:46.397Z,4.68
2017-12-13T00:29:13.828Z,4.62
2017-12-13T00:31:41.352Z,4.70
2017-12-13T00:34:08.808Z,4.30
2017-12-13T00:36:36.268Z,4.00
2017-12-13T00:39:03.720Z,4.97
2017-12-13T00:41:31.180Z,5.05
2017-12-13T00:43:58.603Z,4.55
2017-12-13T00:46:26.092Z,6.55
2017-12-13T00:48:53.520Z,5.22
2017-12-13T00:51:20.942Z,4.45
2017-12-13T00:53:48.389Z,6.55
2017-12-13T00:56:15.816Z,5.07
2017-12-13T00:58:43.254Z,5.97
2017-12-13T01:01:11.020Z,8.18
2017-12-13T01:03:38.510Z,7.05
2017-12-13T01:06:06.050Z,6.32
2017-12-13T01:08:33.495Z,5.12
2017-12-13T01:11:00.952Z,11.07
2017-12-13T01:13:28.353Z,7.05
2017-12-13T01:15:55.790Z,8.93
2017-12-13T01:18:23.216Z,6.00
2017-12-13T01:20:50.784Z,6.10
2017-12-13T01:23:18.242Z,6.22
2017-12-13T01:25:45.677Z,8.82
2017-12-13T01:28:13.101Z,6.62
2017-12-13T01:30:40.530Z,6.80
2017-12-13T01:33:08.995Z,8.15
2017-12-13T01:35:36.452Z,7.85
2017-12-13T01:38:03.890Z,5.78
2017-12-13T01:40:31.346Z,7.15
2017-12-13T01:42:58.749Z,7.03
2017-12-13T01:45:27.105Z,9.20
2017-12-13T01:47:54.843Z,7.72
2017-12-13T01:50:22.315Z,9.25
2017-12-13T01:52:49.733Z,6.85
2017-12-13T01:55:17.320Z,7.15
2017-12-13T01:57:44.741Z,7.20
2017-12-13T02:00:12.167Z,9.43
2017-12-13T02:02:39.689Z,6.43
2017-12-13T02:05:07.344Z,11.48
2017-12-13T02:07:34.772Z,7.72
2017-12-13T02:10:02.364Z,8.32
2017-12-13T02:12:29.825Z,5.90
2017-12-13T02:14:57.276Z,8.48
2017-12-13T02:17:24.701Z,7.32
2017-12-13T02:19:52.216Z,8.88
2017-12-13T02:22:19.644Z,7.87
2017-12-13T02:24:47.100Z,8.50
2017-12-13T02:27:14.521Z,7.65
2017-12-13T02:29:41.959Z,8.25
2017-12-13T02:32:10.261Z,7.22
2017-12-13T02:34:37.848Z,8.05
2017-12-13T02:37:05.304Z,9.60
2017-12-13T02:39:32.740Z,6.97
2017-12-13T02:42:00.220Z,7.60
2017-12-13T02:44:27.674Z,6.45
2017-12-13T02:46:55.096Z,6.55
2017-12-13T02:49:22.525Z,7.95
2017-12-13T02:51:49.966Z,6.10
2017-12-13T02:54:17.382Z,8.13
2017-12-13T02:56:44.970Z,6.82
2017-12-13T02:59:12.379Z,8.57
2017-12-13T03:01:39.869Z,7.62
2017-12-13T03:04:07.330Z,10.63
2017-12-13T03:06:34.776Z,8.68
2017-12-13T03:09:02.212Z,11.70
2017-12-13T03:11:29.697Z,6.82
2017-12-13T03:13:57.125Z,10.25
2017-12-13T03:16:24.604Z,8.05
2017-12-13T03:18:52.055Z,8.75
2017-12-13T03:21:19.719Z,13.13
2017-12-13T03:23:47.112Z,9.35
2017-12-13T03:26:14.655Z,8.40
2017-12-13T03:28:42.184Z,10.98
2017-12-13T03:31:09.618Z,11.93
2017-12-13T03:33:37.104Z,14.18
2017-12-13T03:36:04.832Z,9.10
2017-12-13T03:38:32.320Z,9.68
2017-12-13T03:40:59.739Z,15.07
2017-12-13T03:43:27.168Z,16.85
2017-12-13T03:45:54.589Z,10.43
2017-12-13T03:48:22.035Z,11.30
2017-12-13T03:50:49.612Z,10.57
2017-12-13T03:53:17.261Z,13.82
2017-12-13T03:55:44.832Z,11.15
2017-12-13T03:58:12.481Z,9.15
2017-12-13T04:00:39.892Z,11.77
2017-12-13T04:03:08.092Z,10.70
2017-12-13T04:05:35.512Z,10.98
2017-12-13T04:08:02.943Z,11.45
2017-12-13T04:10:30.374Z,11.52
2017-12-13T04:12:57.842Z,13.35
2017-12-13T04:15:25.273Z,13.10
2017-12-13T04:17:52.697Z,13.73
2017-12-13T04:20:20.897Z,9.48
2017-12-13T04:22:48.320Z,12.15
2017-12-13T04:25:15.779Z,10.50
2017-12-13T04:27:43.200Z,10.57
2017-12-13T04:30:10.638Z,12.37
2017-12-13T04:32:38.079Z,10.98
2017-12-13T04:35:06.268Z,17.25
2017-12-13T04:37:33.692Z,11.55
2017-12-13T04:40:01.901Z,12.25
2017-12-13T04:42:29.343Z,12.15
2017-12-13T04:44:56.777Z,12.10
2017-12-13T04:47:24.192Z,9.02
2017-12-13T04:49:51.665Z,10.32
2017-12-13T04:52:19.284Z,9.73
2017-12-13T04:54:46.688Z,9.80
2017-12-13T04:57:14.876Z,10.70
2017-12-13T04:59:42.296Z,11.88
2017-12-13T05:02:09.737Z,13.32
2017-12-13T05:04:37.143Z,10.68
2017-12-13T05:07:05.360Z,12.80
2017-12-13T05:09:32.787Z,11.15
2017-12-13T05:12:00.226Z,11.02
2017-12-13T05:14:28.417Z,11.52
2017-12-13T05:16:55.849Z,9.88
2017-12-13T05:19:23.267Z,8.88
2017-12-13T05:21:50.700Z,9.15
2017-12-13T05:24:18.127Z,10.73
2017-12-13T05:26:46.312Z,9.40
2017-12-13T05:29:13.733Z,9.10
2017-12-13T05:31:41.165Z,8.70
2017-12-13T05:34:08.580Z,9.90
2017-12-13T05:36:36.008Z,10.75
2017-12-13T05:39:04.234Z,9.63
2017-12-13T05:41:31.660Z,12.35
2017-12-13T05:43:59.084Z,10.20
2017-12-13T05:46:26.508Z,9.98
2017-12-13T05:48:53.943Z,9.68
2017-12-13T05:51:21.355Z,9.77
2017-12-13T05:53:48.852Z,9.15
2017-12-13T05:56:16.301Z,10.43
2017-12-13T05:58:43.741Z,10.30
2017-12-13T06:01:11.170Z,9.77
2017-12-13T06:03:38.602Z,10.88
2017-12-13T06:06:06.019Z,13.43
2017-12-13T06:08:33.462Z,17.58
2017-12-13T06:11:01.643Z,12.15
2017-12-13T06:13:29.137Z,13.07
2017-12-13T06:15:56.773Z,11.07
2017-12-13T06:18:24.368Z,10.52
2017-12-13T06:20:51.788Z,11.23
2017-12-13T06:23:19.232Z,12.15
2017-12-13T06:25:46.762Z,10.93
2017-12-13T06:28:14.389Z,12.50
2017-12-13T06:30:41.821Z,11.43
2017-12-13T06:33:09.272Z,12.23
2017-12-13T06:35:36.856Z,13.00
2017-12-13T06:38:04.321Z,12.93
2017-12-13T06:40:31.774Z,13.27
2017-12-13T06:43:00.089Z,12.55
2017-12-13T06:45:27.524Z,13.90
2017-12-13T06:47:55.069Z,8.90
2017-12-13T06:50:22.517Z,12.37
2017-12-13T06:52:49.977Z,9.02
2017-12-13T06:55:17.417Z,10.00
2017-12-13T06:57:44.841Z,10.05
2017-12-13T07:00:12.346Z,9.00
2017-12-13T07:02:39.769Z,9.60
2017-12-13T07:05:07.244Z,9.63
2017-12-13T07:07:34.668Z,10.73
2017-12-13T07:10:02.362Z,10.98
2017-12-13T07:12:29.816Z,10.57
2017-12-13T07:14:57.297Z,10.43
2017-12-13T07:17:25.036Z,10.63
2017-12-13T07:19:52.923Z,9.43
2017-12-13T07:22:20.598Z,10.15
2017-12-13T07:24:48.136Z,9.98
2017-12-13T07:27:15.897Z,11.32
2017-12-13T07:29:43.319Z,13.30
2017-12-13T07:32:10.812Z,8.73
2017-12-13T07:34:38.229Z,9.53
2017-12-13T07:37:05.656Z,8.82
2017-12-13T07:39:33.081Z,9.75
2017-12-13T07:42:00.634Z,9.13
2017-12-13T07:44:28.066Z,9.50
2017-12-13T07:46:55.522Z,9.13
2017-12-13T07:49:22.915Z,9.27
2017-12-13T07:51:50.351Z,12.20
2017-12-13T07:54:17.783Z,11.40
2017-12-13T07:56:45.267Z,8.65
2017-12-13T07:59:12.702Z,7.72
2017-12-13T08:01:40.162Z,9.98
2017-12-13T08:04:07.633Z,10.27
2017-12-13T08:06:35.060Z,10.23
2017-12-13T08:09:02.556Z,8.13
2017-12-13T08:11:30.031Z,8.93
2017-12-13T08:13:57.566Z,8.07
2017-12-13T08:16:25.023Z,9.55
2017-12-13T08:18:52.440Z,8.93
2017-12-13T08:21:19.981Z,10.93
2017-12-13T08:23:47.394Z,7.05
2017-12-13T08:26:14.812Z,8.02
2017-12-13T08:28:42.241Z,6.95
2017-12-13T08:31:09.678Z,7.47
2017-12-13T08:33:37.209Z,7.87
2017-12-13T08:36:04.672Z,8.90
2017-12-13T08:38:32.372Z,7.12
2017-12-13T08:40:59.888Z,9.25
2017-12-13T08:43:27.312Z,7.30
2017-12-13T08:45:54.800Z,7.45
2017-12-13T08:48:22.259Z,7.05
2017-12-13T08:50:49.709Z,5.85
2017-12-13T08:53:17.141Z,8.80
2017-12-13T08:55:44.614Z,6.53
2017-12-13T08:58:12.039Z,8.95
2017-12-13T09:00:39.465Z,7.28
2017-12-13T09:03:06.997Z,7.70
2017-12-13T09:05:34.692Z,8.80
2017-12-13T09:08:02.113Z,8.20
2017-12-13T09:10:29.540Z,6.70
2017-12-13T09:12:56.957Z,7.45
2017-12-13T09:15:24.392Z,7.00
2017-12-13T09:17:51.806Z,6.90
2017-12-13T09:20:19.250Z,10.65
2017-12-13T09:22:46.664Z,6.10
2017-12-13T09:25:14.096Z,5.62
2017-12-13T09:27:41.520Z,6.55
2017-12-13T09:30:09.725Z,6.43
2017-12-13T09:32:37.136Z,6.95
2017-12-13T09:35:04.560Z,9.23
2017-12-13T09:37:31.993Z,6.62
2017-12-13T09:39:59.417Z,5.97
2017-12-13T09:42:26.843Z,9.25
2017-12-13T09:44:54.273Z,5.93
2017-12-13T09:47:21.733Z,7.20
2017-12-13T09:49:49.147Z,5.65
2017-12-13T09:52:16.585Z,10.18
2017-12-13T09:54:44.768Z,7.65
2017-12-13T09:57:12.203Z,7.12
2017-12-13T09:59:40.396Z,6.55
2017-12-13T10:02:07.832Z,5.40
2017-12-13T10:04:35.457Z,5.28
2017-12-13T10:07:03.002Z,4.90
2017-12-13T10:09:30.428Z,5.07
2017-12-13T10:11:57.861Z,5.55
2017-12-13T10:14:26.057Z,6.18
2017-12-13T10:16:53.514Z,5.97
2017-12-13T10:19:20.932Z,6.95
2017-12-13T10:21:48.528Z,7.43
2017-12-13T10:24:15.970Z,5.75
2017-12-13T10:26:44.157Z,5.37
2017-12-13T10:29:11.589Z,5.05
2017-12-13T10:31:39.777Z,6.07
2017-12-13T10:34:07.212Z,7.75
2017-12-13T10:36:34.638Z,6.50
2017-12-13T10:39:02.075Z,4.45
2017-12-13T10:41:29.512Z,5.75
2017-12-13T10:43:56.945Z,7.78
2017-12-13T10:46:25.138Z,6.90
2017-12-13T10:48:52.573Z,5.90
2017-12-13T10:51:19.995Z,5.25
2017-12-13T10:53:47.420Z,5.75
2017-12-13T10:56:14.844Z,4.90
2017-12-13T10:58:43.044Z,9.02
2017-12-13T11:01:10.468Z,5.85
2017-12-13T11:03:37.909Z,5.25
2017-12-13T11:06:05.332Z,5.35
2017-12-13T11:08:32.765Z,5.00
2017-12-13T11:11:00.238Z,5.62
2017-12-13T11:13:27.632Z,5.45
2017-12-13T11:15:55.066Z,6.40
2017-12-13T11:18:22.489Z,13.38
2017-12-13T11:20:49.925Z,5.57
2017-12-13T11:23:19.547Z,6.00
2017-12-13T11:25:46.987Z,4.00
2017-12-13T11:28:15.176Z,5.87
2017-12-13T11:30:42.602Z,5.35
2017-12-13T11:33:10.033Z,7.45
2017-12-13T11:35:37.448Z,6.13
2017-12-13T11:38:04.864Z,5.15
2017-12-13T11:40:32.295Z,5.00
2017-12-13T11:42:59.712Z,5.90
2017-12-13T11:45:27.159Z,8.25
2017-12-13T11:47:54.575Z,4.25
2017-12-13T11:50:22.021Z,5.37
2017-12-13T11:52:49.655Z,4.57
2017-12-13T11:55:17.064Z,4.70
2017-12-13T11:57:45.263Z,6.87
2017-12-13T12:00:12.673Z,5.30
2017-12-13T12:02:40.108Z,4.18
2017-12-13T12:05:07.532Z,5.35
2017-12-13T12:07:34.952Z,6.30
2017-12-13T12:10:02.378Z,3.87
2017-12-13T12:12:29.809Z,6.35
2017-12-13T12:14:57.247Z,4.72
2017-12-13T12:17:24.941Z,4.37
2017-12-13T12:19:52.360Z,5.15
2017-12-13T12:22:21.949Z,5.80
2017-12-13T12:24:49.376Z,6.05
2017-12-13T12:27:16.808Z,6.57
2017-12-13T12:29:44.247Z,11.05
2017-12-13T12:32:11.687Z,5.05
2017-12-13T12:34:39.905Z,4.82
2017-12-13T12:37:07.327Z,4.15
2017-12-13T12:39:34.748Z,5.50
2017-12-13T12:42:02.172Z,4.62
2017-12-13T12:44:29.609Z,4.05
2017-12-13T12:46:57.192Z,4.57
2017-12-13T12:49:24.704Z,5.30
2017-12-13T12:51:52.396Z,4.28
2017-12-13T12:54:19.851Z,4.03
2017-12-13T12:56:47.281Z,6.30
2017-12-13T12:59:14.769Z,4.80
2017-12-13T13:01:42.197Z,5.18
2017-12-13T13:04:09.631Z,4.25
2017-12-13T13:06:37.137Z,3.83
2017-12-13T13:09:04.592Z,4.20
2017-12-13T13:11:32.017Z,4.22
2017-12-13T13:13:59.504Z,4.20
2017-12-13T13:16:26.961Z,5.18
2017-12-13T13:18:54.417Z,4.35
2017-12-13T13:21:21.862Z,3.72
2017-12-13T13:23:49.283Z,5.15
2017-12-13T13:26:17.264Z,5.85
2017-12-13T13:28:45.446Z,4.68
2017-12-13T13:31:12.873Z,6.10
2017-12-13T13:33:40.304Z,4.50
2017-12-13T13:36:07.840Z,3.10
2017-12-13T13:38:35.292Z,3.50
2017-12-13T13:41:02.720Z,3.25
2017-12-13T13:43:30.158Z,3.53
2017-12-13T13:45:57.571Z,3.95
2017-12-13T13:48:25.006Z,5.53
2017-12-13T13:50:52.579Z,3.53
2017-12-13T13:53:20.029Z,3.95
2017-12-13T13:55:47.492Z,2.90
2017-12-13T13:58:14.908Z,3.58
2017-12-13T14:00:42.396Z,5.12
2017-12-13T14:03:09.858Z,5.28
2017-12-13T14:05:38.247Z,8.17
2017-12-13T14:08:05.698Z,3.42
2017-12-13T14:10:33.153Z,4.00
2017-12-13T14:13:00.909Z,5.20
2017-12-13T14:15:28.361Z,3.90
2017-12-13T14:17:55.770Z,3.08
2017-12-13T14:20:23.953Z,3.90
2017-12-13T14:22:51.584Z,4.10
2017-12-13T14:25:18.991Z,3.30
2017-12-13T14:27:46.563Z,4.20
2017-12-13T14:30:13.980Z,4.70
2017-12-13T14:32:41.411Z,4.53
2017-12-13T14:35:08.863Z,3.65
2017-12-13T14:37:36.294Z,3.08
2017-12-13T14:40:03.715Z,3.90
2017-12-13T14:42:31.216Z,3.42
2017-12-13T14:44:58.783Z,3.90
2017-12-13T14:47:26.405Z,5.93
2017-12-13T14:49:54.012Z,3.97
2017-12-13T14:52:21.744Z,4.10
2017-12-13T14:54:49.160Z,3.47
2017-12-13T14:57:17.355Z,4.00
2017-12-13T14:59:44.789Z,5.37
2017-12-13T15:02:12.421Z,4.82
2017-12-13T15:04:39.953Z,6.20
2017-12-13T15:07:07.420Z,3.87
2017-12-13T15:09:34.860Z,3.72
2017-12-13T15:12:02.322Z,4.57
2017-12-13T15:14:29.776Z,4.28
2017-12-13T15:16:57.196Z,3.23
2017-12-13T15:19:24.637Z,4.25
2017-12-13T15:21:52.052Z,4.10
2017-12-13T15:24:19.595Z,4.40
2017-12-13T15:26:47.009Z,4.03
2017-12-13T15:29:17.698Z,3.97
2017-12-13T15:31:48.673Z,4.18
2017-12-13T15:34:16.197Z,6.80
2017-12-13T15:36:43.659Z,3.83
2017-12-13T15:39:11.089Z,4.62
2017-12-13T15:41:38.548Z,4.28
2017-12-13T15:44:05.973Z,3.83
2017-12-13T15:46:33.533Z,3.95
2017-12-13T15:49:01.025Z,4.17
2017-12-13T15:51:28.643Z,5.15
2017-12-13T15:53:56.139Z,4.35
2017-12-13T15:56:23.586Z,4.15
2017-12-13T15:58:51.250Z,4.53
2017-12-13T16:01:21.792Z,6.82
2017-12-13T16:03:49.312Z,4.40
2017-12-13T16:06:16.730Z,5.00
2017-12-13T16:08:44.168Z,5.57
2017-12-13T16:11:11.604Z,4.47
2017-12-13T16:13:39.164Z,4.40
2017-12-13T16:16:06.625Z,4.05
2017-12-13T16:18:34.052Z,5.43
2017-12-13T16:21:01.494Z,4.37
2017-12-13T16:23:29.001Z,8.05
2017-12-13T16:25:56.625Z,4.00
2017-12-13T16:28:24.222Z,4.80
2017-12-13T16:30:51.684Z,4.40
2017-12-13T16:33:19.113Z,4.15
2017-12-13T16:35:46.582Z,9.23
2017-12-13T16:38:14.064Z,3.28
2017-12-13T16:40:41.841Z,5.62
2017-12-13T16:43:09.436Z,4.32
2017-12-13T16:45:37.623Z,3.95
2017-12-13T16:48:05.056Z,3.70
2017-12-13T16:50:32.489Z,5.75
2017-12-13T16:53:00.551Z,6.93
2017-12-13T16:55:27.994Z,4.53
2017-12-13T16:57:55.551Z,5.37
2017-12-13T17:00:22.974Z,5.20
2017-12-13T17:02:50.471Z,5.80
2017-12-13T17:05:18.991Z,5.35
2017-12-13T17:07:47.197Z,3.83
2017-12-13T17:10:14.616Z,4.25
2017-12-13T17:12:42.117Z,4.15
2017-12-13T17:15:09.573Z,4.00
2017-12-13T17:17:37.001Z,2.70
2017-12-13T17:20:04.483Z,3.00
2017-12-13T17:22:31.939Z,3.50
2017-12-13T17:24:59.368Z,3.37
2017-12-13T17:27:26.805Z,2.90
2017-12-13T17:29:54.248Z,2.40
2017-12-13T17:32:21.668Z,3.95
2017-12-13T17:34:49.158Z,3.70
2017-12-13T17:37:16.684Z,3.90
2017-12-13T17:39:44.122Z,3.65
2017-12-13T17:42:11.586Z,3.45
2017-12-13T17:44:39.029Z,3.40
2017-12-13T17:47:06.448Z,3.10
2017-12-13T17:49:33.953Z,2.97
2017-12-13T17:52:01.385Z,3.10
2017-12-13T17:54:28.817Z,2.90
2017-12-13T17:56:56.236Z,2.35
2017-12-13T17:59:23.668Z,3.17
2017-12-13T18:01:51.087Z,2.60
2017-12-13T18:04:19.288Z,3.40
2017-12-13T18:06:46.760Z,3.10
2017-12-13T18:09:14.172Z,2.20
2017-12-13T18:11:41.613Z,2.72
2017-12-13T18:14:09.068Z,2.62
2017-12-13T18:16:36.495Z,3.10
2017-12-13T18:19:03.930Z,3.25
2017-12-13T18:21:31.362Z,5.47
2017-12-13T18:23:58.784Z,2.92
2017-12-13T18:26:26.229Z,2.83
2017-12-13T18:28:53.759Z,3.00
2017-12-13T18:31:21.229Z,3.85
2017-12-13T18:33:48.649Z,3.10
2017-12-13T18:36:16.096Z,2.90
2017-12-13T18:38:44.282Z,2.67
2017-12-13T18:41:11.709Z,3.12
2017-12-13T18:43:39.131Z,3.00
2017-12-13T18:46:06.561Z,2.90
2017-12-13T18:48:33.997Z,2.78
2017-12-13T18:51:01.426Z,3.40
2017-12-13T18:53:28.859Z,3.62
2017-12-13T18:55:56.276Z,3.60
2017-12-13T18:58:23.723Z,4.70
2017-12-13T19:00:51.144Z,3.20
2017-12-13T19:03:18.593Z,4.22
2017-12-13T19:05:46.013Z,3.37
2017-12-13T19:08:13.476Z,4.00
2017-12-13T19:10:40.906Z,2.92
2017-12-13T19:13:08.337Z,5.15
2017-12-13T19:15:35.774Z,3.78
2017-12-13T19:18:03.204Z,4.80
2017-12-13T19:20:30.646Z,3.50
2017-12-13T19:22:58.824Z,4.37
2017-12-13T19:25:26.252Z,3.97
2017-12-13T19:27:53.691Z,3.65
2017-12-13T19:30:21.120Z,3.92
2017-12-13T19:32:48.548Z,3.92
2017-12-13T19:35:15.972Z,2.83
2017-12-13T19:37:43.396Z,3.40
2017-12-13T19:40:10.832Z,3.45
2017-12-13T19:42:38.256Z,3.70
2017-12-13T19:45:05.702Z,4.57
2017-12-13T19:47:33.125Z,3.70
2017-12-13T19:50:00.552Z,7.03
2017-12-13T19:52:27.974Z,3.03
2017-12-13T19:54:55.412Z,3.03
2017-12-13T19:57:22.827Z,4.40
2017-12-13T19:59:50.259Z,3.97
2017-12-13T20:02:17.688Z,4.18
2017-12-13T20:04:45.104Z,3.62
2017-12-13T20:07:12.530Z,3.92
2017-12-13T20:09:40.077Z,4.25
2017-12-13T20:12:07.483Z,4.70
2017-12-13T20:14:35.681Z,3.05
2017-12-13T20:17:03.116Z,3.53
2017-12-13T20:19:30.532Z,3.03
2017-12-13T20:21:57.966Z,2.60
2017-12-13T20:24:25.464Z,3.78
2017-12-13T20:26:52.900Z,4.47
2017-12-13T20:29:20.324Z,3.95
2017-12-13T20:31:47.757Z,3.40
2017-12-13T20:34:15.940Z,3.22
2017-12-13T20:36:43.368Z,4.03
2017-12-13T20:39:10.794Z,3.37
2017-12-13T20:41:38.236Z,3.47
2017-12-13T20:44:05.651Z,2.97
2017-12-13T20:46:33.833Z,3.50
2017-12-13T20:49:01.494Z,3.55
2017-12-13T20:51:28.961Z,4.18
2017-12-13T20:53:56.393Z,3.47
2017-12-13T20:56:24.585Z,3.15
2017-12-13T20:58:52.016Z,3.30
2017-12-13T21:01:19.437Z,3.60
2017-12-13T21:03:46.878Z,3.70
2017-12-13T21:06:14.297Z,3.20
2017-12-13T21:08:42.488Z,2.67
2017-12-13T21:11:09.904Z,3.40
2017-12-13T21:13:37.336Z,5.10
2017-12-13T21:16:04.764Z,3.55
2017-12-13T21:18:32.188Z,4.95
2017-12-13T21:21:00.377Z,4.60
2017-12-13T21:23:27.812Z,4.05
2017-12-13T21:25:55.231Z,3.65
2017-12-13T21:28:22.657Z,3.62
2017-12-13T21:30:50.086Z,3.53
2017-12-13T21:33:18.297Z,4.50
2017-12-13T21:35:45.715Z,4.65
2017-12-13T21:38:14.079Z,3.75
2017-12-13T21:40:41.524Z,4.05
2017-12-13T21:43:08.953Z,4.10
2017-12-13T21:45:36.387Z,4.35
2017-12-13T21:48:03.804Z,3.58
2017-12-13T21:50:32.027Z,3.33
2017-12-13T21:52:59.437Z,3.15
2017-12-13T21:55:26.868Z,3.25
2017-12-13T21:57:54.298Z,4.60
2017-12-13T22:00:21.728Z,3.78
2017-12-13T22:02:49.157Z,3.05
2017-12-13T22:05:17.361Z,2.85
2017-12-13T22:07:44.793Z,3.47
2017-12-13T22:10:12.985Z,3.53
2017-12-13T22:12:40.408Z,2.55
2017-12-13T22:15:07.844Z,2.65
2017-12-13T22:17:35.309Z,2.30
2017-12-13T22:20:02.737Z,2.12
2017-12-13T22:22:30.172Z,3.72
2017-12-13T22:24:57.592Z,2.58
2017-12-13T22:27:25.025Z,3.90
2017-12-13T22:29:52.450Z,2.40
2017-12-13T22:32:19.922Z,2.87
2017-12-13T22:34:47.315Z,3.35
2017-12-13T22:37:14.764Z,3.25
2017-12-13T22:39:42.192Z,3.90
2017-12-13T22:42:09.630Z,3.50
2017-12-13T22:44:37.053Z,2.67
2017-12-13T22:47:04.489Z,3.42
2017-12-13T22:49:31.912Z,4.95
2017-12-13T22:52:00.108Z,4.70
2017-12-13T22:54:27.535Z,3.60
2017-12-13T22:56:54.973Z,2.87
2017-12-13T22:59:22.404Z,3.58
2017-12-13T23:01:49.824Z,3.05
2017-12-13T23:04:17.262Z,2.95
2017-12-13T23:06:44.699Z,4.07
2017-12-13T23:09:12.180Z,2.40
2017-12-13T23:11:39.584Z,4.95
2017-12-13T23:14:07.013Z,2.40
2017-12-13T23:16:34.436Z,3.00
2017-12-13T23:19:01.868Z,3.25
2017-12-13T23:21:29.296Z,3.58
2017-12-13T23:23:57.516Z,2.95
2017-12-13T23:26:24.948Z,2.40
2017-12-13T23:28:52.382Z,3.65
2017-12-13T23:31:19.814Z,3.08
2017-12-13T23:33:47.245Z,3.15
2017-12-13T23:36:14.672Z,3.70
2017-12-13T23:38:42.099Z,3.62
2017-12-13T23:41:10.297Z,2.58
2017-12-13T23:43:38.499Z,3.20
2017-12-13T23:46:05.926Z,2.60
2017-12-13T23:48:33.362Z,2.97
2017-12-13T23:51:00.791Z,2.10
2017-12-13T23:53:28.218Z,2.42
2017-12-13T23:55:55.639Z,1.70
2017-12-13T23:58:23.088Z,2.67
